sensor_id;sensor_type;location;lat;lon;timestamp;P1;durP1;ratioP1;P2;durP2;ratioP2
23068;SDS011;11702;50.856;4.348;2022-07-24T00:02:05;44.28;;;31.45;;
23068;SDS011;11702;50.856;4.348;2022-07-24T00:04:31;37.65;;;30.65;;
23068;SDS011;11702;50.856;4.348;2022-07-24T00:06:57;38.95;;;31.00;;
23068;SDS011;11702;50.856;4.348;2022-07-24T00:09:22;41.55;;;30.63;;
23068;SDS011;11702;50.856;4.348;2022-07-24T00:11:48;38.28;;;29.90;;
23068;SDS011;11702;50.856;4.348;2022-07-24T00:14:14;41.38;;;31.88;;
23068;SDS011;11702;50.856;4.348;2022-07-24T00:16:39;40.75;;;32.10;;
23068;SDS011;11702;50.856;4.348;2022-07-24T00:19:05;41.53;;;32.47;;
23068;SDS011;11702;50.856;4.348;2022-07-24T00:21:31;43.55;;;30.73;;
23068;SDS011;11702;50.856;4.348;2022-07-24T00:23:57;46.88;;;33.15;;
23068;SDS011;11702;50.856;4.348;2022-07-24T00:26:23;43.55;;;33.92;;
23068;SDS011;11702;50.856;4.348;2022-07-24T00:28:49;42.80;;;33.20;;
23068;SDS011;11702;50.856;4.348;2022-07-24T00:31:15;49.38;;;32.97;;
23068;SDS011;11702;50.856;4.348;2022-07-24T00:33:41;41.05;;;31.85;;
23068;SDS011;11702;50.856;4.348;2022-07-24T00:36:07;43.58;;;33.40;;
23068;SDS011;11702;50.856;4.348;2022-07-24T00:38:33;44.65;;;33.17;;
23068;SDS011;11702;50.856;4.348;2022-07-24T00:40:59;46.53;;;33.80;;
23068;SDS011;11702;50.856;4.348;2022-07-24T00:43:24;47.20;;;33.38;;
23068;SDS011;11702;50.856;4.348;2022-07-24T00:45:50;50.63;;;34.35;;
23068;SDS011;11702;50.856;4.348;2022-07-24T00:48:16;48.95;;;34.22;;
23068;SDS011;11702;50.856;4.348;2022-07-24T00:50:42;45.67;;;33.63;;
23068;SDS011;11702;50.856;4.348;2022-07-24T00:53:08;47.83;;;33.83;;
23068;SDS011;11702;50.856;4.348;2022-07-24T00:55:34;51.72;;;34.30;;
23068;SDS011;11702;50.856;4.348;2022-07-24T00:58:00;44.80;;;33.42;;
23068;SDS011;11702;50.856;4.348;2022-07-24T01:00:26;43.03;;;33.30;;
23068;SDS011;11702;50.856;4.348;2022-07-24T01:02:52;41.17;;;32.65;;
23068;SDS011;11702;50.856;4.348;2022-07-24T01:05:18;39.90;;;31.40;;
23068;SDS011;11702;50.856;4.348;2022-07-24T01:07:44;37.45;;;29.20;;
23068;SDS011;11702;50.856;4.348;2022-07-24T01:10:10;35.85;;;29.33;;
23068;SDS011;11702;50.856;4.348;2022-07-24T01:12:37;35.83;;;29.25;;
23068;SDS011;11702;50.856;4.348;2022-07-24T01:15:04;37.13;;;29.75;;
23068;SDS011;11702;50.856;4.348;2022-07-24T01:17:33;35.08;;;28.45;;
23068;SDS011;11702;50.856;4.348;2022-07-24T01:20:01;41.55;;;29.17;;
23068;SDS011;11702;50.856;4.348;2022-07-24T01:22:28;36.50;;;28.88;;
23068;SDS011;11702;50.856;4.348;2022-07-24T01:24:54;41.53;;;30.83;;
23068;SDS011;11702;50.856;4.348;2022-07-24T01:27:21;42.97;;;30.23;;
23068;SDS011;11702;50.856;4.348;2022-07-24T01:29:47;41.58;;;30.27;;
23068;SDS011;11702;50.856;4.348;2022-07-24T01:32:13;41.25;;;29.38;;
23068;SDS011;11702;50.856;4.348;2022-07-24T01:34:39;38.88;;;28.25;;
23068;SDS011;11702;50.856;4.348;2022-07-24T01:37:04;38.30;;;29.30;;
23068;SDS011;11702;50.856;4.348;2022-07-24T01:39:30;35.33;;;27.63;;
23068;SDS011;11702;50.856;4.348;2022-07-24T01:41:56;32.95;;;26.88;;
23068;SDS011;11702;50.856;4.348;2022-07-24T01:44:21;36.45;;;26.02;;
23068;SDS011;11702;50.856;4.348;2022-07-24T01:46:47;39.15;;;28.13;;
23068;SDS011;11702;50.856;4.348;2022-07-24T01:49:12;35.20;;;26.27;;
23068;SDS011;11702;50.856;4.348;2022-07-24T01:51:38;32.70;;;26.35;;
23068;SDS011;11702;50.856;4.348;2022-07-24T01:54:04;38.42;;;26.70;;
23068;SDS011;11702;50.856;4.348;2022-07-24T01:56:30;34.63;;;26.52;;
23068;SDS011;11702;50.856;4.348;2022-07-24T01:58:57;37.50;;;27.23;;
23068;SDS011;11702;50.856;4.348;2022-07-24T02:01:23;32.33;;;25.08;;
23068;SDS011;11702;50.856;4.348;2022-07-24T02:03:49;35.38;;;27.67;;
23068;SDS011;11702;50.856;4.348;2022-07-24T02:06:14;36.75;;;27.95;;
23068;SDS011;11702;50.856;4.348;2022-07-24T02:08:41;32.75;;;28.10;;
23068;SDS011;11702;50.856;4.348;2022-07-24T02:11:06;37.03;;;29.75;;
23068;SDS011;11702;50.856;4.348;2022-07-24T02:13:32;37.75;;;29.88;;
23068;SDS011;11702;50.856;4.348;2022-07-24T02:15:59;37.53;;;29.90;;
23068;SDS011;11702;50.856;4.348;2022-07-24T02:18:24;41.53;;;30.98;;
23068;SDS011;11702;50.856;4.348;2022-07-24T02:20:50;40.45;;;29.48;;
23068;SDS011;11702;50.856;4.348;2022-07-24T02:23:16;38.75;;;30.73;;
23068;SDS011;11702;50.856;4.348;2022-07-24T02:25:46;40.75;;;31.40;;
23068;SDS011;11702;50.856;4.348;2022-07-24T02:28:12;37.08;;;30.20;;
23068;SDS011;11702;50.856;4.348;2022-07-24T02:30:38;38.60;;;30.80;;
23068;SDS011;11702;50.856;4.348;2022-07-24T02:33:04;39.20;;;29.92;;
23068;SDS011;11702;50.856;4.348;2022-07-24T02:35:30;41.67;;;30.85;;
23068;SDS011;11702;50.856;4.348;2022-07-24T02:37:55;36.28;;;28.48;;
23068;SDS011;11702;50.856;4.348;2022-07-24T02:40:21;35.80;;;29.05;;
23068;SDS011;11702;50.856;4.348;2022-07-24T02:42:46;34.10;;;27.08;;
23068;SDS011;11702;50.856;4.348;2022-07-24T02:45:12;38.38;;;27.15;;
23068;SDS011;11702;50.856;4.348;2022-07-24T02:47:55;38.22;;;27.23;;
23068;SDS011;11702;50.856;4.348;2022-07-24T02:50:22;31.23;;;26.20;;
23068;SDS011;11702;50.856;4.348;2022-07-24T02:52:50;35.78;;;25.67;;
23068;SDS011;11702;50.856;4.348;2022-07-24T02:55:16;31.67;;;25.30;;
23068;SDS011;11702;50.856;4.348;2022-07-24T02:57:42;32.83;;;23.85;;
23068;SDS011;11702;50.856;4.348;2022-07-24T03:00:09;34.05;;;24.45;;
23068;SDS011;11702;50.856;4.348;2022-07-24T03:02:36;30.83;;;24.42;;
23068;SDS011;11702;50.856;4.348;2022-07-24T03:05:02;33.20;;;25.05;;
23068;SDS011;11702;50.856;4.348;2022-07-24T03:07:29;37.70;;;26.13;;
23068;SDS011;11702;50.856;4.348;2022-07-24T03:09:55;36.88;;;27.88;;
23068;SDS011;11702;50.856;4.348;2022-07-24T03:12:20;37.03;;;27.58;;
23068;SDS011;11702;50.856;4.348;2022-07-24T03:14:46;38.70;;;27.38;;
23068;SDS011;11702;50.856;4.348;2022-07-24T03:17:12;39.42;;;27.27;;
23068;SDS011;11702;50.856;4.348;2022-07-24T03:19:37;39.00;;;26.23;;
23068;SDS011;11702;50.856;4.348;2022-07-24T03:22:03;35.33;;;25.60;;
23068;SDS011;11702;50.856;4.348;2022-07-24T03:24:29;31.80;;;24.33;;
23068;SDS011;11702;50.856;4.348;2022-07-24T03:26:54;32.60;;;24.40;;
23068;SDS011;11702;50.856;4.348;2022-07-24T03:29:20;36.03;;;24.58;;
23068;SDS011;11702;50.856;4.348;2022-07-24T03:31:46;31.10;;;25.55;;
23068;SDS011;11702;50.856;4.348;2022-07-24T03:34:11;34.35;;;26.50;;
23068;SDS011;11702;50.856;4.348;2022-07-24T03:36:37;35.95;;;28.08;;
23068;SDS011;11702;50.856;4.348;2022-07-24T03:39:03;39.10;;;25.88;;
23068;SDS011;11702;50.856;4.348;2022-07-24T03:41:29;34.30;;;26.83;;
23068;SDS011;11702;50.856;4.348;2022-07-24T03:43:55;38.15;;;27.42;;
23068;SDS011;11702;50.856;4.348;2022-07-24T03:46:21;37.10;;;27.42;;
23068;SDS011;11702;50.856;4.348;2022-07-24T03:48:47;42.70;;;32.00;;
23068;SDS011;11702;50.856;4.348;2022-07-24T03:51:13;53.83;;;36.05;;
23068;SDS011;11702;50.856;4.348;2022-07-24T03:53:38;51.97;;;36.03;;
23068;SDS011;11702;50.856;4.348;2022-07-24T03:56:05;54.67;;;36.50;;
23068;SDS011;11702;50.856;4.348;2022-07-24T03:58:31;56.00;;;39.58;;
23068;SDS011;11702;50.856;4.348;2022-07-24T04:00:57;56.13;;;38.85;;
23068;SDS011;11702;50.856;4.348;2022-07-24T04:03:23;53.90;;;38.67;;
23068;SDS011;11702;50.856;4.348;2022-07-24T04:05:48;55.65;;;38.97;;
23068;SDS011;11702;50.856;4.348;2022-07-24T04:08:14;51.95;;;38.63;;
23068;SDS011;11702;50.856;4.348;2022-07-24T04:10:40;46.33;;;33.90;;
23068;SDS011;11702;50.856;4.348;2022-07-24T04:13:05;46.70;;;31.77;;
23068;SDS011;11702;50.856;4.348;2022-07-24T04:15:31;39.28;;;29.50;;
23068;SDS011;11702;50.856;4.348;2022-07-24T04:17:57;40.92;;;30.10;;
23068;SDS011;11702;50.856;4.348;2022-07-24T04:20:23;41.15;;;27.35;;
23068;SDS011;11702;50.856;4.348;2022-07-24T04:22:48;35.13;;;25.10;;
23068;SDS011;11702;50.856;4.348;2022-07-24T04:25:14;34.92;;;24.55;;
23068;SDS011;11702;50.856;4.348;2022-07-24T04:27:39;35.97;;;24.17;;
23068;SDS011;11702;50.856;4.348;2022-07-24T04:30:05;32.40;;;24.33;;
23068;SDS011;11702;50.856;4.348;2022-07-24T04:32:31;38.85;;;25.02;;
23068;SDS011;11702;50.856;4.348;2022-07-24T04:34:57;32.90;;;25.20;;
23068;SDS011;11702;50.856;4.348;2022-07-24T04:37:23;28.90;;;23.00;;
23068;SDS011;11702;50.856;4.348;2022-07-24T04:39:48;31.75;;;23.40;;
23068;SDS011;11702;50.856;4.348;2022-07-24T04:42:14;32.90;;;22.25;;
23068;SDS011;11702;50.856;4.348;2022-07-24T04:44:40;33.00;;;21.48;;
23068;SDS011;11702;50.856;4.348;2022-07-24T04:47:06;28.98;;;20.77;;
23068;SDS011;11702;50.856;4.348;2022-07-24T04:49:31;27.13;;;20.73;;
23068;SDS011;11702;50.856;4.348;2022-07-24T04:51:57;31.10;;;21.15;;
23068;SDS011;11702;50.856;4.348;2022-07-24T04:54:22;27.85;;;19.50;;
23068;SDS011;11702;50.856;4.348;2022-07-24T04:56:48;23.67;;;17.75;;
23068;SDS011;11702;50.856;4.348;2022-07-24T04:59:14;24.90;;;17.60;;
23068;SDS011;11702;50.856;4.348;2022-07-24T05:01:39;23.17;;;16.25;;
23068;SDS011;11702;50.856;4.348;2022-07-24T05:04:05;23.27;;;16.13;;
23068;SDS011;11702;50.856;4.348;2022-07-24T05:06:31;22.30;;;15.20;;
23068;SDS011;11702;50.856;4.348;2022-07-24T05:08:56;21.63;;;15.25;;
23068;SDS011;11702;50.856;4.348;2022-07-24T05:11:22;21.83;;;14.15;;
23068;SDS011;11702;50.856;4.348;2022-07-24T05:13:48;19.17;;;14.35;;
23068;SDS011;11702;50.856;4.348;2022-07-24T05:16:13;20.42;;;14.43;;
23068;SDS011;11702;50.856;4.348;2022-07-24T05:18:39;21.63;;;14.25;;
23068;SDS011;11702;50.856;4.348;2022-07-24T05:21:05;18.85;;;13.55;;
23068;SDS011;11702;50.856;4.348;2022-07-24T05:23:31;17.60;;;12.20;;
23068;SDS011;11702;50.856;4.348;2022-07-24T05:25:56;14.05;;;11.30;;
23068;SDS011;11702;50.856;4.348;2022-07-24T05:28:22;17.13;;;10.98;;
23068;SDS011;11702;50.856;4.348;2022-07-24T05:30:47;12.93;;;10.23;;
23068;SDS011;11702;50.856;4.348;2022-07-24T05:33:13;17.23;;;10.13;;
23068;SDS011;11702;50.856;4.348;2022-07-24T05:35:39;13.13;;;9.23;;
23068;SDS011;11702;50.856;4.348;2022-07-24T05:38:04;10.20;;;9.02;;
23068;SDS011;11702;50.856;4.348;2022-07-24T05:40:30;10.75;;;7.85;;
23068;SDS011;11702;50.856;4.348;2022-07-24T05:42:55;20.38;;;8.57;;
23068;SDS011;11702;50.856;4.348;2022-07-24T05:45:21;14.48;;;9.15;;
23068;SDS011;11702;50.856;4.348;2022-07-24T05:47:47;11.95;;;8.60;;
23068;SDS011;11702;50.856;4.348;2022-07-24T05:50:13;14.13;;;8.68;;
23068;SDS011;11702;50.856;4.348;2022-07-24T05:52:39;9.10;;;7.85;;
23068;SDS011;11702;50.856;4.348;2022-07-24T05:55:06;12.65;;;7.95;;
23068;SDS011;11702;50.856;4.348;2022-07-24T05:57:32;10.48;;;7.70;;
23068;SDS011;11702;50.856;4.348;2022-07-24T05:59:58;13.95;;;8.80;;
23068;SDS011;11702;50.856;4.348;2022-07-24T06:02:24;11.85;;;8.90;;
23068;SDS011;11702;50.856;4.348;2022-07-24T06:04:50;14.45;;;8.55;;
23068;SDS011;11702;50.856;4.348;2022-07-24T06:07:15;8.93;;;7.40;;
23068;SDS011;11702;50.856;4.348;2022-07-24T06:09:41;11.15;;;7.25;;
23068;SDS011;11702;50.856;4.348;2022-07-24T06:12:07;13.45;;;7.28;;
23068;SDS011;11702;50.856;4.348;2022-07-24T06:14:33;11.43;;;7.85;;
23068;SDS011;11702;50.856;4.348;2022-07-24T06:16:59;11.77;;;7.53;;
23068;SDS011;11702;50.856;4.348;2022-07-24T06:19:24;13.85;;;6.93;;
23068;SDS011;11702;50.856;4.348;2022-07-24T06:21:51;9.80;;;6.07;;
23068;SDS011;11702;50.856;4.348;2022-07-24T06:24:16;12.57;;;6.68;;
23068;SDS011;11702;50.856;4.348;2022-07-24T06:26:42;7.72;;;5.70;;
23068;SDS011;11702;50.856;4.348;2022-07-24T06:29:08;9.85;;;6.38;;
23068;SDS011;11702;50.856;4.348;2022-07-24T06:31:34;8.07;;;5.97;;
23068;SDS011;11702;50.856;4.348;2022-07-24T06:33:59;8.93;;;5.50;;
23068;SDS011;11702;50.856;4.348;2022-07-24T06:36:25;12.35;;;6.05;;
23068;SDS011;11702;50.856;4.348;2022-07-24T06:38:52;8.43;;;5.75;;
23068;SDS011;11702;50.856;4.348;2022-07-24T06:41:18;9.55;;;6.13;;
23068;SDS011;11702;50.856;4.348;2022-07-24T06:43:44;8.57;;;5.80;;
23068;SDS011;11702;50.856;4.348;2022-07-24T06:46:09;9.60;;;5.88;;
23068;SDS011;11702;50.856;4.348;2022-07-24T06:48:35;9.82;;;6.18;;
23068;SDS011;11702;50.856;4.348;2022-07-24T06:51:00;7.65;;;4.82;;
23068;SDS011;11702;50.856;4.348;2022-07-24T06:53:26;9.25;;;5.30;;
23068;SDS011;11702;50.856;4.348;2022-07-24T06:55:52;7.60;;;5.15;;
23068;SDS011;11702;50.856;4.348;2022-07-24T06:58:19;9.40;;;5.63;;
23068;SDS011;11702;50.856;4.348;2022-07-24T07:00:46;7.05;;;5.18;;
23068;SDS011;11702;50.856;4.348;2022-07-24T07:03:13;8.02;;;4.78;;
23068;SDS011;11702;50.856;4.348;2022-07-24T07:05:39;10.65;;;5.10;;
23068;SDS011;11702;50.856;4.348;2022-07-24T07:08:04;8.27;;;4.55;;
23068;SDS011;11702;50.856;4.348;2022-07-24T07:10:30;8.68;;;5.07;;
23068;SDS011;11702;50.856;4.348;2022-07-24T07:12:56;8.02;;;5.13;;
23068;SDS011;11702;50.856;4.348;2022-07-24T07:15:22;6.60;;;4.60;;
23068;SDS011;11702;50.856;4.348;2022-07-24T07:17:47;9.82;;;5.00;;
23068;SDS011;11702;50.856;4.348;2022-07-24T07:20:13;6.50;;;5.35;;
23068;SDS011;11702;50.856;4.348;2022-07-24T07:22:40;9.07;;;4.70;;
23068;SDS011;11702;50.856;4.348;2022-07-24T07:25:07;7.95;;;5.82;;
23068;SDS011;11702;50.856;4.348;2022-07-24T07:27:33;8.73;;;5.82;;
23068;SDS011;11702;50.856;4.348;2022-07-24T07:30:00;8.93;;;4.55;;
23068;SDS011;11702;50.856;4.348;2022-07-24T07:32:27;7.32;;;4.35;;
23068;SDS011;11702;50.856;4.348;2022-07-24T07:34:53;9.25;;;4.85;;
23068;SDS011;11702;50.856;4.348;2022-07-24T07:37:18;6.13;;;4.43;;
23068;SDS011;11702;50.856;4.348;2022-07-24T07:39:44;7.70;;;4.43;;
23068;SDS011;11702;50.856;4.348;2022-07-24T07:42:10;9.85;;;4.75;;
23068;SDS011;11702;50.856;4.348;2022-07-24T07:44:36;8.52;;;4.18;;
23068;SDS011;11702;50.856;4.348;2022-07-24T07:47:01;7.15;;;3.88;;
23068;SDS011;11702;50.856;4.348;2022-07-24T07:49:28;4.95;;;3.22;;
23068;SDS011;11702;50.856;4.348;2022-07-24T07:51:54;4.50;;;3.53;;
23068;SDS011;11702;50.856;4.348;2022-07-24T07:54:19;6.05;;;3.33;;
23068;SDS011;11702;50.856;4.348;2022-07-24T07:56:45;4.20;;;3.63;;
23068;SDS011;11702;50.856;4.348;2022-07-24T07:59:11;5.72;;;3.40;;
23068;SDS011;11702;50.856;4.348;2022-07-24T08:01:36;6.07;;;4.03;;
23068;SDS011;11702;50.856;4.348;2022-07-24T08:04:02;6.25;;;3.75;;
23068;SDS011;11702;50.856;4.348;2022-07-24T08:06:28;6.65;;;3.90;;
23068;SDS011;11702;50.856;4.348;2022-07-24T08:08:54;6.35;;;4.03;;
23068;SDS011;11702;50.856;4.348;2022-07-24T08:11:20;7.93;;;3.92;;
23068;SDS011;11702;50.856;4.348;2022-07-24T08:13:45;17.13;;;4.93;;
23068;SDS011;11702;50.856;4.348;2022-07-24T08:16:11;21.05;;;4.57;;
23068;SDS011;11702;50.856;4.348;2022-07-24T08:18:37;38.10;;;6.72;;
23068;SDS011;11702;50.856;4.348;2022-07-24T08:21:03;14.80;;;3.85;;
23068;SDS011;11702;50.856;4.348;2022-07-24T08:23:29;13.57;;;3.88;;
23068;SDS011;11702;50.856;4.348;2022-07-24T08:25:55;4.93;;;3.03;;
23068;SDS011;11702;50.856;4.348;2022-07-24T08:28:20;7.43;;;3.17;;
23068;SDS011;11702;50.856;4.348;2022-07-24T08:30:48;8.45;;;3.30;;
23068;SDS011;11702;50.856;4.348;2022-07-24T08:33:16;8.63;;;3.30;;
23068;SDS011;11702;50.856;4.348;2022-07-24T08:35:42;9.82;;;3.28;;
23068;SDS011;11702;50.856;4.348;2022-07-24T08:38:08;8.10;;;3.20;;
23068;SDS011;11702;50.856;4.348;2022-07-24T08:40:35;4.97;;;2.83;;
23068;SDS011;11702;50.856;4.348;2022-07-24T08:43:04;3.97;;;2.97;;
23068;SDS011;11702;50.856;4.348;2022-07-24T08:45:33;5.45;;;2.85;;
23068;SDS011;11702;50.856;4.348;2022-07-24T08:48:02;15.80;;;3.40;;
23068;SDS011;11702;50.856;4.348;2022-07-24T08:50:30;5.73;;;2.80;;
23068;SDS011;11702;50.856;4.348;2022-07-24T08:52:57;5.72;;;2.80;;
23068;SDS011;11702;50.856;4.348;2022-07-24T08:55:23;3.97;;;2.42;;
23068;SDS011;11702;50.856;4.348;2022-07-24T08:57:49;6.32;;;3.15;;
23068;SDS011;11702;50.856;4.348;2022-07-24T09:00:14;5.05;;;2.97;;
23068;SDS011;11702;50.856;4.348;2022-07-24T09:02:40;5.03;;;2.60;;
23068;SDS011;11702;50.856;4.348;2022-07-24T09:05:06;4.45;;;2.63;;
23068;SDS011;11702;50.856;4.348;2022-07-24T09:07:32;3.72;;;2.30;;
23068;SDS011;11702;50.856;4.348;2022-07-24T09:10:04;4.78;;;2.38;;
23068;SDS011;11702;50.856;4.348;2022-07-24T09:12:31;5.88;;;2.40;;
23068;SDS011;11702;50.856;4.348;2022-07-24T09:15:30;3.90;;;2.38;;
23068;SDS011;11702;50.856;4.348;2022-07-24T09:17:56;4.28;;;2.40;;
23068;SDS011;11702;50.856;4.348;2022-07-24T09:20:25;3.85;;;2.75;;
23068;SDS011;11702;50.856;4.348;2022-07-24T09:22:52;3.13;;;2.10;;
23068;SDS011;11702;50.856;4.348;2022-07-24T09:27:54;2.60;;;2.25;;
23068;SDS011;11702;50.856;4.348;2022-07-24T09:32:55;4.88;;;2.58;;
23068;SDS011;11702;50.856;4.348;2022-07-24T09:35:23;5.60;;;2.42;;
23068;SDS011;11702;50.856;4.348;2022-07-24T09:38:03;4.83;;;2.67;;
23068;SDS011;11702;50.856;4.348;2022-07-24T09:40:33;5.00;;;2.85;;
23068;SDS011;11702;50.856;4.348;2022-07-24T09:43:14;4.57;;;2.40;;
23068;SDS011;11702;50.856;4.348;2022-07-24T09:45:58;5.75;;;2.35;;
23068;SDS011;11702;50.856;4.348;2022-07-24T09:48:25;4.70;;;2.55;;
23068;SDS011;11702;50.856;4.348;2022-07-24T09:51:03;3.35;;;2.13;;
23068;SDS011;11702;50.856;4.348;2022-07-24T09:53:31;3.83;;;2.13;;
23068;SDS011;11702;50.856;4.348;2022-07-24T10:01:10;6.32;;;2.40;;
23068;SDS011;11702;50.856;4.348;2022-07-24T10:03:37;5.53;;;2.15;;
23068;SDS011;11702;50.856;4.348;2022-07-24T10:06:05;3.22;;;2.40;;
23068;SDS011;11702;50.856;4.348;2022-07-24T10:08:34;2.92;;;1.75;;
23068;SDS011;11702;50.856;4.348;2022-07-24T10:11:01;9.23;;;2.53;;
23068;SDS011;11702;50.856;4.348;2022-07-24T10:13:27;2.78;;;2.00;;
23068;SDS011;11702;50.856;4.348;2022-07-24T10:21:17;4.70;;;2.33;;
23068;SDS011;11702;50.856;4.348;2022-07-24T10:26:58;2.40;;;1.90;;
23068;SDS011;11702;50.856;4.348;2022-07-24T10:29:18;5.90;;;2.00;;
23068;SDS011;11702;50.856;4.348;2022-07-24T10:31:46;2.95;;;1.90;;
23068;SDS011;11702;50.856;4.348;2022-07-24T10:36:51;4.80;;;2.00;;
23068;SDS011;11702;50.856;4.348;2022-07-24T10:39:37;4.07;;;2.15;;
23068;SDS011;11702;50.856;4.348;2022-07-24T10:42:23;4.10;;;1.75;;
23068;SDS011;11702;50.856;4.348;2022-07-24T10:47:43;2.55;;;2.10;;
23068;SDS011;11702;50.856;4.348;2022-07-24T10:50:09;7.05;;;2.25;;
23068;SDS011;11702;50.856;4.348;2022-07-24T10:52:35;2.90;;;2.08;;
23068;SDS011;11702;50.856;4.348;2022-07-24T10:58:03;4.30;;;2.40;;
23068;SDS011;11702;50.856;4.348;2022-07-24T11:00:36;8.80;;;2.10;;
23068;SDS011;11702;50.856;4.348;2022-07-24T11:05:32;3.40;;;2.33;;
23068;SDS011;11702;50.856;4.348;2022-07-24T11:10:48;2.50;;;2.17;;
23068;SDS011;11702;50.856;4.348;2022-07-24T11:21:28;5.95;;;2.53;;
23068;SDS011;11702;50.856;4.348;2022-07-24T11:29:45;5.38;;;2.63;;
23068;SDS011;11702;50.856;4.348;2022-07-24T11:32:18;3.75;;;2.20;;
23068;SDS011;11702;50.856;4.348;2022-07-24T11:34:48;7.18;;;2.40;;
23068;SDS011;11702;50.856;4.348;2022-07-24T11:37:15;2.63;;;2.30;;
23068;SDS011;11702;50.856;4.348;2022-07-24T11:39:41;3.15;;;2.38;;
23068;SDS011;11702;50.856;4.348;2022-07-24T11:42:10;5.90;;;2.47;;
23068;SDS011;11702;50.856;4.348;2022-07-24T11:44:39;4.95;;;2.80;;
23068;SDS011;11702;50.856;4.348;2022-07-24T11:47:07;11.05;;;2.90;;
23068;SDS011;11702;50.856;4.348;2022-07-24T11:49:50;8.60;;;2.70;;
23068;SDS011;11702;50.856;4.348;2022-07-24T11:52:22;5.82;;;3.00;;
23068;SDS011;11702;50.856;4.348;2022-07-24T11:54:59;4.68;;;2.65;;
23068;SDS011;11702;50.856;4.348;2022-07-24T11:57:29;4.93;;;2.90;;
23068;SDS011;11702;50.856;4.348;2022-07-24T11:59:56;5.30;;;2.72;;
23068;SDS011;11702;50.856;4.348;2022-07-24T12:02:23;3.20;;;2.90;;
23068;SDS011;11702;50.856;4.348;2022-07-24T12:04:49;2.65;;;2.40;;
23068;SDS011;11702;50.856;4.348;2022-07-24T12:07:19;6.68;;;3.00;;
23068;SDS011;11702;50.856;4.348;2022-07-24T12:09:57;5.38;;;3.03;;
23068;SDS011;11702;50.856;4.348;2022-07-24T12:12:38;6.30;;;3.15;;
23068;SDS011;11702;50.856;4.348;2022-07-24T12:15:11;4.20;;;3.08;;
23068;SDS011;11702;50.856;4.348;2022-07-24T12:17:54;8.75;;;3.53;;
23068;SDS011;11702;50.856;4.348;2022-07-24T12:20:23;4.25;;;3.40;;
23068;SDS011;11702;50.856;4.348;2022-07-24T12:22:54;5.10;;;3.08;;
23068;SDS011;11702;50.856;4.348;2022-07-24T12:25:20;9.48;;;3.40;;
23068;SDS011;11702;50.856;4.348;2022-07-24T12:27:47;6.18;;;3.22;;
23068;SDS011;11702;50.856;4.348;2022-07-24T12:32:52;6.55;;;3.00;;
23068;SDS011;11702;50.856;4.348;2022-07-24T12:35:19;4.25;;;2.75;;
23068;SDS011;11702;50.856;4.348;2022-07-24T12:37:45;6.78;;;2.95;;
23068;SDS011;11702;50.856;4.348;2022-07-24T12:40:21;6.38;;;3.13;;
23068;SDS011;11702;50.856;4.348;2022-07-24T12:43:09;5.88;;;3.10;;
23068;SDS011;11702;50.856;4.348;2022-07-24T12:45:37;4.57;;;3.20;;
23068;SDS011;11702;50.856;4.348;2022-07-24T12:48:17;6.25;;;2.80;;
23068;SDS011;11702;50.856;4.348;2022-07-24T12:51:20;4.25;;;2.83;;
23068;SDS011;11702;50.856;4.348;2022-07-24T12:53:40;5.22;;;3.22;;
23068;SDS011;11702;50.856;4.348;2022-07-24T13:01:21;4.25;;;2.85;;
23068;SDS011;11702;50.856;4.348;2022-07-24T13:03:53;3.78;;;3.10;;
23068;SDS011;11702;50.856;4.348;2022-07-24T13:06:19;7.60;;;2.80;;
23068;SDS011;11702;50.856;4.348;2022-07-24T13:08:58;4.90;;;2.67;;
23068;SDS011;11702;50.856;4.348;2022-07-24T13:11:23;4.22;;;2.53;;
23068;SDS011;11702;50.856;4.348;2022-07-24T13:13:49;5.65;;;3.28;;
23068;SDS011;11702;50.856;4.348;2022-07-24T13:16:14;3.42;;;3.13;;
23068;SDS011;11702;50.856;4.348;2022-07-24T13:18:40;6.30;;;2.83;;
23068;SDS011;11702;50.856;4.348;2022-07-24T13:21:06;5.10;;;3.00;;
23068;SDS011;11702;50.856;4.348;2022-07-24T13:23:31;4.10;;;3.05;;
23068;SDS011;11702;50.856;4.348;2022-07-24T13:25:57;6.00;;;3.00;;
23068;SDS011;11702;50.856;4.348;2022-07-24T13:28:23;4.63;;;2.97;;
23068;SDS011;11702;50.856;4.348;2022-07-24T13:30:48;3.75;;;3.10;;
23068;SDS011;11702;50.856;4.348;2022-07-24T13:33:14;3.72;;;3.03;;
23068;SDS011;11702;50.856;4.348;2022-07-24T13:35:40;6.82;;;3.03;;
23068;SDS011;11702;50.856;4.348;2022-07-24T13:38:05;3.03;;;2.75;;
23068;SDS011;11702;50.856;4.348;2022-07-24T13:40:31;5.70;;;3.10;;
23068;SDS011;11702;50.856;4.348;2022-07-24T13:42:57;4.65;;;3.47;;
23068;SDS011;11702;50.856;4.348;2022-07-24T13:45:22;6.47;;;3.35;;
23068;SDS011;11702;50.856;4.348;2022-07-24T13:47:48;3.10;;;2.80;;
23068;SDS011;11702;50.856;4.348;2022-07-24T13:50:14;4.90;;;2.60;;
23068;SDS011;11702;50.856;4.348;2022-07-24T13:52:39;8.93;;;3.28;;
23068;SDS011;11702;50.856;4.348;2022-07-24T13:55:06;6.32;;;3.00;;
23068;SDS011;11702;50.856;4.348;2022-07-24T13:57:32;7.00;;;3.13;;
23068;SDS011;11702;50.856;4.348;2022-07-24T13:59:57;3.95;;;2.70;;
23068;SDS011;11702;50.856;4.348;2022-07-24T14:02:23;7.18;;;3.08;;
23068;SDS011;11702;50.856;4.348;2022-07-24T14:04:48;7.40;;;3.45;;
23068;SDS011;11702;50.856;4.348;2022-07-24T14:07:14;4.82;;;2.92;;
23068;SDS011;11702;50.856;4.348;2022-07-24T14:09:40;6.43;;;2.90;;
23068;SDS011;11702;50.856;4.348;2022-07-24T14:12:05;5.55;;;3.58;;
23068;SDS011;11702;50.856;4.348;2022-07-24T14:14:31;5.43;;;2.83;;
23068;SDS011;11702;50.856;4.348;2022-07-24T14:16:57;4.50;;;3.25;;
23068;SDS011;11702;50.856;4.348;2022-07-24T14:19:23;4.05;;;3.20;;
23068;SDS011;11702;50.856;4.348;2022-07-24T14:21:48;3.63;;;2.70;;
23068;SDS011;11702;50.856;4.348;2022-07-24T14:24:15;9.65;;;2.88;;
23068;SDS011;11702;50.856;4.348;2022-07-24T14:26:42;7.10;;;2.80;;
23068;SDS011;11702;50.856;4.348;2022-07-24T14:29:08;4.07;;;2.60;;
23068;SDS011;11702;50.856;4.348;2022-07-24T14:31:34;6.15;;;3.03;;
23068;SDS011;11702;50.856;4.348;2022-07-24T14:34:00;3.75;;;3.00;;
23068;SDS011;11702;50.856;4.348;2022-07-24T14:36:25;3.75;;;2.80;;
23068;SDS011;11702;50.856;4.348;2022-07-24T14:38:51;8.70;;;3.10;;
23068;SDS011;11702;50.856;4.348;2022-07-24T14:41:17;4.53;;;3.20;;
23068;SDS011;11702;50.856;4.348;2022-07-24T14:43:42;3.30;;;3.00;;
23068;SDS011;11702;50.856;4.348;2022-07-24T14:46:08;5.32;;;3.17;;
23068;SDS011;11702;50.856;4.348;2022-07-24T14:48:34;4.85;;;3.10;;
23068;SDS011;11702;50.856;4.348;2022-07-24T14:50:59;5.82;;;3.33;;
23068;SDS011;11702;50.856;4.348;2022-07-24T14:53:25;10.07;;;3.47;;
23068;SDS011;11702;50.856;4.348;2022-07-24T14:55:50;3.63;;;3.20;;
23068;SDS011;11702;50.856;4.348;2022-07-24T14:58:16;5.20;;;3.30;;
23068;SDS011;11702;50.856;4.348;2022-07-24T15:00:42;10.02;;;3.95;;
23068;SDS011;11702;50.856;4.348;2022-07-24T15:03:07;5.63;;;3.80;;
23068;SDS011;11702;50.856;4.348;2022-07-24T15:05:33;6.50;;;4.03;;
23068;SDS011;11702;50.856;4.348;2022-07-24T15:07:59;6.30;;;3.95;;
23068;SDS011;11702;50.856;4.348;2022-07-24T15:10:24;5.47;;;3.97;;
23068;SDS011;11702;50.856;4.348;2022-07-24T15:12:50;4.75;;;3.60;;
23068;SDS011;11702;50.856;4.348;2022-07-24T15:15:16;4.20;;;3.10;;
23068;SDS011;11702;50.856;4.348;2022-07-24T15:17:42;9.82;;;3.92;;
23068;SDS011;11702;50.856;4.348;2022-07-24T15:20:08;9.07;;;3.95;;
23068;SDS011;11702;50.856;4.348;2022-07-24T15:22:34;6.50;;;3.70;;
23068;SDS011;11702;50.856;4.348;2022-07-24T15:24:59;5.30;;;3.80;;
23068;SDS011;11702;50.856;4.348;2022-07-24T15:27:25;5.47;;;3.85;;
23068;SDS011;11702;50.856;4.348;2022-07-24T15:29:51;4.65;;;3.90;;